createdAt,value
2022-09-22T00:02:25.880Z,31.20
2022-09-22T00:04:56.661Z,31.20
2022-09-22T00:07:31.201Z,31.10
2022-09-22T00:10:08.834Z,31.00
2022-09-22T00:12:38.955Z,30.90
2022-09-22T00:15:11.178Z,30.70
2022-09-22T00:17:44.210Z,30.80
2022-09-22T00:20:16.836Z,30.80
2022-09-22T00:22:51.710Z,30.70
2022-09-22T00:25:22.039Z,30.70
2022-09-22T00:27:55.725Z,30.60
2022-09-22T00:30:26.249Z,30.60
2022-09-22T00:32:58.579Z,30.60
2022-09-22T00:35:29.541Z,30.60
2022-09-22T00:38:00.318Z,30.60
2022-09-22T00:40:31.975Z,30.40
2022-09-22T00:43:25.369Z,30.30
2022-09-22T00:46:21.353Z,30.30
2022-09-22T00:49:02.344Z,30.10
2022-09-22T00:51:41.884Z,30.10
2022-09-22T00:54:16.863Z,30.00
2022-09-22T00:56:59.697Z,30.00
2022-09-22T00:59:33.626Z,29.90
2022-09-22T01:02:07.976Z,29.90
2022-09-22T01:04:43.880Z,29.80
2022-09-22T01:07:16.114Z,29.70
2022-09-22T01:09:48.190Z,29.60
2022-09-22T01:12:24.355Z,29.50
2022-09-22T01:15:09.171Z,29.50
2022-09-22T01:17:45.197Z,29.40
2022-09-22T01:20:36.086Z,29.30
2022-09-22T01:23:29.001Z,29.30
2022-09-22T01:26:27.422Z,29.20
2022-09-22T01:29:19.053Z,29.10
2022-09-22T01:32:08.701Z,29.10
2022-09-22T01:35:14.116Z,29.00
2022-09-22T01:38:14.092Z,28.90
2022-09-22T01:41:00.966Z,28.80
2022-09-22T01:44:06.048Z,28.70
2022-09-22T01:46:51.043Z,28.60
2022-09-22T01:49:27.597Z,28.60
2022-09-22T01:52:09.308Z,28.60
2022-09-22T01:54:54.429Z,28.50
2022-09-22T01:57:43.274Z,28.50
2022-09-22T02:00:19.123Z,28.40
2022-09-22T02:02:57.543Z,28.50
2022-09-22T02:05:36.772Z,28.50
2022-09-22T02:08:16.128Z,28.40
2022-09-22T02:10:50.235Z,28.50
2022-09-22T02:13:22.038Z,28.70
2022-09-22T02:16:04.751Z,28.90
2022-09-22T02:19:14.159Z,29.10
2022-09-22T02:21:49.139Z,29.10
2022-09-22T02:24:37.851Z,29.10
2022-09-22T02:27:17.327Z,29.20
2022-09-22T02:30:17.409Z,29.10
2022-09-22T02:32:57.871Z,29.10
2022-09-22T02:35:34.470Z,29.10
2022-09-22T02:38:14.773Z,29.10
2022-09-22T02:41:13.569Z,29.00
2022-09-22T02:44:02.438Z,29.00
2022-09-22T02:46:49.519Z,29.00
2022-09-22T02:49:23.082Z,29.00
2022-09-22T02:51:56.645Z,28.90
2022-09-22T02:54:27.730Z,28.90
2022-09-22T02:56:59.245Z,28.80
2022-09-22T02:59:32.371Z,28.80
2022-09-22T03:02:07.239Z,28.80
2022-09-22T03:04:38.404Z,28.70
2022-09-22T03:07:13.107Z,28.70
2022-09-22T03:09:44.218Z,28.70
2022-09-22T03:12:15.699Z,28.70
2022-09-22T03:14:50.955Z,28.60
2022-09-22T03:17:21.457Z,28.50
2022-09-22T03:19:51.502Z,28.50
2022-09-22T03:22:23.206Z,28.60
2022-09-22T03:24:53.652Z,28.60
2022-09-22T03:27:29.588Z,28.60
2022-09-22T03:30:05.451Z,28.40
2022-09-22T03:32:39.657Z,28.30
2022-09-22T03:35:12.529Z,28.20
2022-09-22T03:37:45.081Z,28.10
2022-09-22T03:40:19.272Z,28.00
2022-09-22T03:42:51.127Z,27.90
2022-09-22T03:45:22.476Z,27.90
2022-09-22T03:47:56.060Z,27.90
2022-09-22T03:50:25.850Z,27.80
2022-09-22T03:52:59.162Z,27.90
2022-09-22T03:55:28.984Z,28.00
2022-09-22T03:58:01.918Z,28.00
2022-09-22T04:00:33.181Z,28.00
2022-09-22T04:03:07.011Z,28.00
2022-09-22T04:05:39.111Z,28.00
2022-09-22T04:08:11.344Z,28.00
2022-09-22T04:10:42.277Z,27.90
2022-09-22T04:13:13.116Z,27.90
2022-09-22T04:15:48.366Z,28.00
2022-09-22T04:18:20.168Z,28.00
2022-09-22T04:20:53.954Z,27.90
2022-09-22T04:23:26.511Z,27.90
2022-09-22T04:25:57.194Z,27.90
2022-09-22T04:28:26.982Z,27.80
2022-09-22T04:30:57.763Z,27.80
2022-09-22T04:33:29.623Z,27.70
2022-09-22T04:36:01.024Z,27.70
2022-09-22T04:38:32.979Z,27.60
2022-09-22T04:41:03.725Z,27.60
2022-09-22T04:43:37.309Z,27.50
2022-09-22T04:46:08.587Z,27.50
2022-09-22T04:48:39.724Z,27.40
2022-09-22T04:51:10.939Z,27.30
2022-09-22T04:53:43.011Z,27.30
2022-09-22T04:56:13.007Z,27.30
2022-09-22T04:58:43.500Z,27.30
2022-09-22T05:01:14.619Z,27.20
2022-09-22T05:03:48.100Z,27.20
2022-09-22T05:06:18.908Z,27.10
2022-09-22T05:08:50.813Z,27.00
2022-09-22T05:11:25.148Z,26.90
2022-09-22T05:13:58.533Z,26.90
2022-09-22T05:16:29.685Z,26.90
2022-09-22T05:19:02.524Z,26.80
2022-09-22T05:21:33.752Z,26.80
2022-09-22T05:24:05.289Z,26.70
2022-09-22T05:26:39.028Z,26.70
2022-09-22T05:29:11.282Z,26.50
2022-09-22T05:31:42.066Z,26.50
2022-09-22T05:34:13.055Z,26.50
2022-09-22T05:36:45.959Z,26.50
2022-09-22T05:39:17.394Z,26.50
2022-09-22T05:41:51.305Z,26.40
2022-09-22T05:44:23.289Z,26.40
2022-09-22T05:46:55.975Z,26.30
2022-09-22T05:49:27.374Z,26.30
2022-09-22T05:52:00.006Z,26.30
2022-09-22T05:54:30.903Z,26.20
2022-09-22T05:57:04.021Z,26.10
2022-09-22T05:59:36.211Z,26.10
2022-09-22T06:02:23.707Z,26.00
2022-09-22T06:04:56.088Z,25.90
2022-09-22T06:07:26.003Z,25.90
2022-09-22T06:09:56.584Z,25.90
2022-09-22T06:12:26.997Z,25.90
2022-09-22T06:15:00.282Z,25.80
2022-09-22T06:17:34.899Z,25.80
2022-09-22T06:20:08.146Z,25.80
2022-09-22T06:22:38.258Z,25.80
2022-09-22T06:25:10.948Z,25.80
2022-09-22T06:27:41.989Z,25.80
2022-09-22T06:30:16.850Z,25.70
2022-09-22T06:32:55.497Z,25.70
2022-09-22T06:35:32.453Z,25.60
2022-09-22T06:38:07.876Z,25.60
2022-09-22T06:40:40.746Z,25.50
2022-09-22T06:43:24.134Z,25.40
2022-09-22T06:45:58.127Z,25.50
2022-09-22T06:48:34.390Z,25.50
2022-09-22T06:51:05.420Z,25.40
2022-09-22T06:53:36.251Z,25.40
2022-09-22T06:56:07.414Z,25.50
2022-09-22T06:59:05.454Z,25.60
2022-09-22T07:01:33.677Z,25.50
2022-09-22T07:04:08.601Z,25.60
2022-09-22T07:06:38.735Z,25.50
2022-09-22T07:09:11.492Z,25.40
2022-09-22T07:11:41.653Z,25.40
2022-09-22T07:14:14.987Z,25.40
2022-09-22T07:16:46.058Z,25.40
2022-09-22T07:19:16.925Z,25.40
2022-09-22T07:21:49.143Z,25.50
2022-09-22T07:24:20.590Z,25.50
2022-09-22T07:26:52.359Z,25.40
2022-09-22T07:29:24.770Z,25.30
2022-09-22T07:31:56.560Z,25.30
2022-09-22T07:34:29.939Z,25.30
2022-09-22T07:37:02.200Z,25.20
2022-09-22T07:39:33.905Z,25.10
2022-09-22T07:42:08.881Z,25.10
2022-09-22T07:44:57.146Z,25.20
2022-09-22T07:47:49.120Z,25.10
2022-09-22T07:50:19.826Z,25.00
2022-09-22T07:52:54.722Z,25.00
2022-09-22T07:55:26.159Z,25.00
2022-09-22T07:58:02.699Z,24.90
2022-09-22T08:00:37.777Z,24.90
2022-09-22T08:03:11.478Z,24.80
2022-09-22T08:05:42.556Z,24.90
2022-09-22T08:08:13.533Z,24.80
2022-09-22T08:10:46.488Z,24.90
2022-09-22T08:13:25.683Z,24.90
2022-09-22T08:15:57.800Z,24.90
2022-09-22T08:18:29.957Z,24.80
2022-09-22T08:21:03.612Z,24.80
2022-09-22T08:23:36.192Z,24.70
2022-09-22T08:26:11.064Z,24.60
2022-09-22T08:28:44.915Z,24.70
2022-09-22T08:31:21.619Z,24.50
2022-09-22T08:33:54.328Z,24.60
2022-09-22T08:36:26.529Z,24.50
2022-09-22T08:39:02.952Z,24.50
2022-09-22T08:41:58.371Z,24.40
2022-09-22T08:44:39.464Z,24.50
2022-09-22T08:47:41.135Z,24.50
2022-09-22T08:51:03.645Z,24.60
2022-09-22T08:53:54.279Z,24.50
2022-09-22T08:56:32.395Z,24.50
2022-09-22T08:59:25.489Z,24.50
2022-09-22T09:02:39.822Z,24.50
2022-09-22T09:05:44.353Z,24.40
2022-09-22T09:08:40.673Z,24.40
2022-09-22T09:11:29.332Z,24.30
2022-09-22T09:14:21.147Z,24.30
2022-09-22T09:16:59.809Z,24.10
2022-09-22T09:19:56.922Z,24.10
2022-09-22T09:22:44.922Z,24.20
2022-09-22T09:25:27.101Z,24.10
2022-09-22T09:28:08.208Z,23.90
2022-09-22T09:30:53.185Z,23.90
2022-09-22T09:33:40.897Z,23.80
2022-09-22T09:36:21.391Z,23.80
2022-09-22T09:39:00.711Z,23.90
2022-09-22T09:41:36.786Z,23.90
2022-09-22T09:44:13.878Z,23.80
2022-09-22T09:47:20.865Z,23.80
2022-09-22T09:49:53.070Z,23.60
2022-09-22T09:52:26.707Z,23.70
2022-09-22T09:55:03.860Z,23.50
2022-09-22T09:57:36.336Z,23.50
2022-09-22T10:00:34.348Z,23.60
2022-09-22T10:03:28.714Z,23.60
2022-09-22T10:06:08.405Z,23.50
2022-09-22T10:08:51.744Z,23.40
2022-09-22T10:11:34.949Z,23.40
2022-09-22T10:14:18.476Z,23.50
2022-09-22T10:16:57.500Z,23.50
2022-09-22T10:19:32.057Z,23.50
2022-09-22T10:22:25.934Z,23.60
2022-09-22T10:25:01.851Z,23.50
2022-09-22T10:27:34.953Z,23.50
2022-09-22T10:30:25.437Z,23.50
2022-09-22T10:33:14.592Z,23.40
2022-09-22T10:36:18.199Z,23.30
2022-09-22T10:38:48.662Z,23.30
2022-09-22T10:41:32.141Z,23.30
2022-09-22T10:44:37.939Z,23.30
2022-09-22T10:47:27.774Z,23.20
2022-09-22T10:50:42.760Z,23.20
2022-09-22T10:53:40.753Z,23.20
2022-09-22T10:56:31.066Z,23.10
2022-09-22T10:59:07.600Z,23.10
2022-09-22T11:02:10.492Z,23.10
2022-09-22T11:04:40.196Z,23.10
2022-09-22T11:07:53.834Z,23.00
2022-09-22T11:10:54.274Z,23.00
2022-09-22T11:13:52.720Z,23.00
2022-09-22T11:16:52.285Z,23.00
2022-09-22T11:19:29.903Z,22.90
2022-09-22T11:22:13.976Z,22.80
2022-09-22T11:25:01.459Z,22.80
2022-09-22T11:27:59.209Z,22.80
2022-09-22T11:30:39.851Z,22.90
2022-09-22T11:33:25.890Z,22.90
2022-09-22T11:36:20.086Z,22.90
2022-09-22T11:39:11.744Z,23.00
2022-09-22T11:41:47.455Z,23.00
2022-09-22T11:44:44.620Z,22.90
2022-09-22T11:47:23.786Z,23.00
2022-09-22T11:50:26.957Z,22.90
2022-09-22T11:53:14.401Z,22.80
2022-09-22T11:56:02.636Z,22.80
2022-09-22T11:58:35.678Z,22.80
2022-09-22T12:01:22.681Z,22.70
2022-09-22T12:04:07.133Z,22.70
2022-09-22T12:06:44.132Z,22.70
2022-09-22T12:09:34.268Z,22.80
2022-09-22T12:12:12.557Z,22.90
2022-09-22T12:14:44.319Z,23.00
2022-09-22T12:17:43.136Z,23.00
2022-09-22T12:20:27.183Z,22.90
2022-09-22T12:23:21.766Z,22.90
2022-09-22T12:25:55.748Z,22.70
2022-09-22T12:28:29.775Z,22.80
2022-09-22T12:31:07.487Z,22.70
2022-09-22T12:33:41.745Z,22.70
2022-09-22T12:36:11.614Z,22.50
2022-09-22T12:38:44.611Z,22.50
2022-09-22T12:41:23.249Z,22.40
2022-09-22T12:43:53.307Z,22.50
2022-09-22T12:46:31.226Z,22.60
2022-09-22T12:49:11.467Z,22.60
2022-09-22T12:51:42.063Z,22.60
2022-09-22T12:54:25.262Z,22.70
2022-09-22T12:57:12.297Z,22.80
2022-09-22T12:59:42.318Z,22.80
2022-09-22T13:02:19.166Z,22.90
2022-09-22T13:05:01.862Z,22.90
2022-09-22T13:07:40.994Z,23.00
2022-09-22T13:10:24.620Z,23.00
2022-09-22T13:13:14.751Z,23.20
2022-09-22T13:15:50.524Z,23.10
2022-09-22T13:18:42.043Z,23.20
2022-09-22T13:21:19.368Z,23.30
2022-09-22T13:24:00.536Z,23.40
2022-09-22T13:26:34.871Z,23.40
2022-09-22T13:29:23.730Z,23.50
2022-09-22T13:32:00.774Z,23.70
2022-09-22T13:34:37.105Z,23.60
2022-09-22T13:37:20.332Z,23.70
2022-09-22T13:39:54.082Z,23.90
2022-09-22T13:42:37.182Z,23.90
2022-09-22T13:45:25.189Z,23.90
2022-09-22T13:48:10.105Z,24.10
2022-09-22T13:50:54.368Z,24.20
2022-09-22T13:53:27.370Z,24.30
2022-09-22T13:55:59.567Z,24.30
2022-09-22T13:58:53.509Z,24.40
2022-09-22T14:01:28.440Z,24.50
2022-09-22T14:03:59.236Z,24.60
2022-09-22T14:06:35.038Z,24.80
2022-09-22T14:09:06.067Z,24.80
2022-09-22T14:11:37.867Z,24.80
2022-09-22T14:14:25.959Z,25.00
2022-09-22T14:17:09.190Z,25.10
2022-09-22T14:19:57.781Z,25.20
2022-09-22T14:22:34.943Z,25.30
2022-09-22T14:25:07.484Z,25.40
2022-09-22T14:27:47.995Z,25.40
2022-09-22T14:30:19.795Z,25.50
2022-09-22T14:32:56.589Z,25.60
2022-09-22T14:35:37.449Z,25.70
2022-09-22T14:38:23.702Z,25.80
2022-09-22T14:41:06.328Z,25.90
2022-09-22T14:43:42.942Z,25.90
2022-09-22T14:46:35.797Z,26.00
2022-09-22T14:49:37.663Z,26.00
2022-09-22T14:52:16.444Z,26.10
2022-09-22T14:54:50.748Z,26.10
2022-09-22T14:57:22.680Z,26.30
2022-09-22T15:00:18.850Z,26.40
2022-09-22T15:02:59.450Z,26.50
2022-09-22T15:05:35.476Z,26.50
2022-09-22T15:08:06.778Z,26.60
2022-09-22T15:10:44.940Z,26.60
2022-09-22T15:13:30.234Z,26.60
2022-09-22T15:16:02.719Z,26.60
2022-09-22T15:18:32.788Z,26.70
2022-09-22T15:21:14.607Z,26.70
2022-09-22T15:23:50.205Z,26.70
2022-09-22T15:26:29.502Z,27.00
2022-09-22T15:29:02.587Z,27.00
2022-09-22T15:31:33.522Z,27.00
2022-09-22T15:34:03.986Z,27.00
2022-09-22T15:36:43.647Z,27.00
2022-09-22T15:39:40.165Z,27.00
2022-09-22T15:42:13.163Z,27.10
2022-09-22T15:44:45.110Z,27.30
2022-09-22T15:47:17.845Z,27.30
2022-09-22T15:49:53.921Z,27.30
2022-09-22T15:52:23.964Z,27.40
2022-09-22T15:54:59.018Z,27.50
2022-09-22T15:57:32.851Z,27.60
2022-09-22T16:00:06.913Z,27.60
2022-09-22T16:02:43.837Z,27.80
2022-09-22T16:05:16.961Z,27.90
2022-09-22T16:07:55.309Z,28.00
2022-09-22T16:10:27.061Z,28.00
2022-09-22T16:13:00.236Z,28.00
2022-09-22T16:15:31.772Z,28.00
2022-09-22T16:18:01.897Z,28.10
2022-09-22T16:20:32.777Z,28.20
2022-09-22T16:23:03.594Z,28.40
2022-09-22T16:25:37.354Z,28.40
2022-09-22T16:28:10.233Z,28.50
2022-09-22T16:30:44.726Z,28.40
2022-09-22T16:33:19.936Z,28.50
2022-09-22T16:35:52.405Z,28.50
2022-09-22T16:38:23.765Z,28.50
2022-09-22T16:41:22.124Z,28.60
2022-09-22T16:43:55.566Z,28.90
2022-09-22T16:46:31.344Z,28.90
2022-09-22T16:49:06.468Z,28.80
2022-09-22T16:51:39.323Z,29.00
2022-09-22T16:54:15.044Z,29.00
2022-09-22T16:56:47.348Z,29.00
2022-09-22T16:59:24.451Z,29.10
2022-09-22T17:01:57.781Z,29.30
2022-09-22T17:04:30.987Z,29.10
2022-09-22T17:07:01.632Z,29.30
2022-09-22T17:09:33.803Z,29.60
2022-09-22T17:12:12.108Z,29.70
2022-09-22T17:14:44.845Z,29.70
2022-09-22T17:17:17.506Z,29.90
2022-09-22T17:19:49.758Z,29.80
2022-09-22T17:22:22.712Z,29.90
2022-09-22T17:24:56.189Z,29.60
2022-09-22T17:27:27.133Z,29.80
2022-09-22T17:29:58.214Z,29.90
2022-09-22T17:32:29.995Z,29.90
2022-09-22T17:35:01.568Z,30.10
2022-09-22T17:37:31.648Z,30.20
2022-09-22T17:40:03.463Z,30.30
2022-09-22T17:42:39.187Z,30.20
2022-09-22T17:45:10.099Z,30.40
2022-09-22T17:47:59.454Z,30.30
2022-09-22T17:50:50.376Z,30.30
2022-09-22T17:53:38.626Z,30.00
2022-09-22T17:56:12.455Z,29.90
2022-09-22T17:58:45.082Z,30.00
2022-09-22T18:01:17.199Z,30.30
2022-09-22T18:03:47.616Z,30.70
2022-09-22T18:06:22.330Z,30.40
2022-09-22T18:08:58.033Z,30.40
2022-09-22T18:11:31.155Z,30.70
2022-09-22T18:14:03.576Z,30.80
2022-09-22T18:16:36.794Z,30.90
2022-09-22T18:19:09.926Z,30.70
2022-09-22T18:21:43.713Z,30.60
2022-09-22T18:24:20.961Z,30.60
2022-09-22T18:26:51.988Z,30.80
2022-09-22T18:29:24.379Z,31.00
2022-09-22T18:31:56.006Z,31.30
2022-09-22T18:34:30.758Z,31.30
2022-09-22T18:37:02.489Z,31.10
2022-09-22T18:39:35.749Z,31.00
2022-09-22T18:42:12.368Z,31.20
2022-09-22T18:44:43.009Z,31.10
2022-09-22T18:47:20.475Z,31.30
2022-09-22T18:49:52.810Z,31.00
2022-09-22T18:52:25.389Z,31.20
2022-09-22T18:54:56.158Z,31.20
2022-09-22T18:57:29.948Z,31.30
2022-09-22T19:00:02.225Z,31.50
2022-09-22T19:02:32.686Z,31.50
2022-09-22T19:05:04.193Z,31.40
2022-09-22T19:07:44.469Z,31.40
2022-09-22T19:10:21.766Z,31.20
2022-09-22T19:12:51.725Z,31.20
2022-09-22T19:15:24.073Z,31.30
2022-09-22T19:17:54.836Z,31.30
2022-09-22T19:20:27.438Z,31.40
2022-09-22T19:23:00.267Z,31.50
2022-09-22T19:25:31.211Z,31.50
2022-09-22T19:28:05.035Z,31.90
2022-09-22T19:30:38.891Z,31.90
2022-09-22T19:33:10.285Z,31.80
2022-09-22T19:35:41.531Z,31.90
2022-09-22T19:38:12.086Z,31.90
2022-09-22T19:40:42.342Z,31.80
2022-09-22T19:43:13.253Z,31.60
2022-09-22T19:45:45.514Z,31.60
2022-09-22T19:48:17.738Z,31.70
2022-09-22T19:50:50.661Z,31.70
2022-09-22T19:53:20.894Z,31.60
2022-09-22T19:55:51.155Z,31.30
2022-09-22T19:58:22.362Z,31.40
2022-09-22T20:00:54.341Z,31.30
2022-09-22T20:03:26.906Z,31.40
2022-09-22T20:05:59.906Z,31.50
2022-09-22T20:08:30.695Z,31.60
2022-09-22T20:11:25.162Z,32.00
2022-09-22T20:14:12.256Z,32.20
2022-09-22T20:16:48.513Z,31.90
2022-09-22T20:19:20.685Z,31.70
2022-09-22T20:21:58.741Z,31.50
2022-09-22T20:24:28.876Z,31.40
2022-09-22T20:27:00.311Z,31.20
2022-09-22T20:29:30.017Z,31.10
2022-09-22T20:32:01.276Z,31.30
2022-09-22T20:34:32.023Z,31.60
2022-09-22T20:37:02.458Z,31.60
2022-09-22T20:39:33.790Z,31.70
2022-09-22T20:42:04.828Z,31.70
2022-09-22T20:44:38.969Z,31.70
2022-09-22T20:47:12.771Z,31.80
2022-09-22T20:49:49.222Z,31.70
2022-09-22T20:52:23.511Z,31.90
2022-09-22T20:54:56.834Z,31.90
2022-09-22T20:57:33.655Z,31.90
2022-09-22T21:00:05.677Z,32.00
2022-09-22T21:02:36.149Z,32.00
2022-09-22T21:05:09.471Z,32.10
2022-09-22T21:07:40.974Z,32.10
2022-09-22T21:10:30.803Z,32.10
2022-09-22T21:13:05.058Z,32.20
2022-09-22T21:15:36.352Z,32.20
2022-09-22T21:18:09.207Z,32.20
2022-09-22T21:20:45.503Z,32.20
2022-09-22T21:23:15.244Z,32.20
2022-09-22T21:25:56.696Z,32.20
2022-09-22T21:28:27.958Z,32.60
2022-09-22T21:31:01.092Z,32.50
2022-09-22T21:33:33.397Z,32.50
2022-09-22T21:36:07.403Z,32.40
2022-09-22T21:38:41.480Z,32.20
2022-09-22T21:41:19.041Z,32.40
2022-09-22T21:43:53.977Z,32.30
2022-09-22T21:46:28.325Z,32.30
2022-09-22T21:49:03.225Z,32.40
2022-09-22T21:51:43.381Z,32.30
2022-09-22T21:54:19.713Z,32.40
2022-09-22T21:56:51.823Z,32.40
2022-09-22T21:59:26.511Z,32.50
2022-09-22T22:01:56.878Z,32.60
2022-09-22T22:04:27.792Z,32.50
2022-09-22T22:07:02.814Z,32.40
2022-09-22T22:09:33.990Z,32.40
2022-09-22T22:12:05.146Z,32.30
2022-09-22T22:14:35.734Z,32.30
2022-09-22T22:17:08.709Z,32.30
2022-09-22T22:19:38.383Z,32.20
2022-09-22T22:22:08.391Z,32.30
2022-09-22T22:24:43.429Z,32.40
2022-09-22T22:27:17.633Z,32.40
2022-09-22T22:29:48.242Z,32.20
2022-09-22T22:32:18.043Z,32.20
2022-09-22T22:34:48.857Z,32.30
2022-09-22T22:37:20.872Z,32.40
2022-09-22T22:39:51.065Z,32.40
2022-09-22T22:42:23.472Z,32.30
2022-09-22T22:44:54.873Z,32.20
2022-09-22T22:47:24.976Z,32.20
2022-09-22T22:49:56.844Z,32.10
2022-09-22T22:52:27.540Z,32.00
2022-09-22T22:54:59.473Z,31.90
2022-09-22T22:57:30.255Z,31.90
2022-09-22T23:00:00.721Z,31.80
2022-09-22T23:02:32.162Z,31.90
2022-09-22T23:05:04.414Z,31.80
2022-09-22T23:07:34.009Z,31.80
2022-09-22T23:10:09.942Z,31.70
2022-09-22T23:12:42.012Z,31.70
2022-09-22T23:15:12.942Z,31.50
2022-09-22T23:17:42.843Z,31.50
2022-09-22T23:20:13.949Z,31.70
2022-09-22T23:22:44.889Z,31.70
2022-09-22T23:25:18.178Z,31.70
2022-09-22T23:27:51.797Z,31.70
2022-09-22T23:30:21.662Z,31.70
2022-09-22T23:32:52.319Z,31.70
2022-09-22T23:35:23.487Z,31.60
2022-09-22T23:37:53.438Z,31.50
2022-09-22T23:40:24.000Z,31.40
2022-09-22T23:42:56.750Z,31.30
2022-09-22T23:45:28.535Z,31.40
2022-09-22T23:48:00.890Z,31.30
2022-09-22T23:50:32.908Z,31.30
2022-09-22T23:53:05.322Z,31.20
2022-09-22T23:55:39.210Z,31.10
2022-09-22T23:58:11.541Z,31.00
